Time;durP1;ratioP1;P1;durP2;ratioP2;P2;SDS_P1;SDS_P2;PMS_P1;PMS_P2;Temp;Humidity;BMP_temperature;BMP_pressure;BME280_temperature;BME280_humidity;BME280_pressure;Samples;Min_cycle;Max_cycle;Signal;HPM_P1;HPM_P2
2021/03/26 00:01:35;;;;;;;24.70;21.77;;;;;;;8.57;65.59;100447.34;10630982;27;20089;-63
2021/03/26 00:06:40;;;;;;;22.42;19.67;;;;;;;8.51;64.66;100449.22;10630251;27;20092;-63
2021/03/26 00:11:42;;;;;;;24.80;20.90;;;;;;;8.44;65.16;100452.81;10631339;27;20416;-64
2021/03/26 00:16:44;;;;;;;22.45;20.05;;;;;;;8.19;64.86;100462.75;10631243;27;20035;-62
2021/03/26 00:21:45;;;;;;;33.42;23.70;;;;;;;8.53;65.53;100460.53;10629426;27;20042;-64
2021/03/26 00:26:46;;;;;;;35.80;23.25;;;;;;;8.31;65.85;100454.72;10628581;27;20079;-62
2021/03/26 00:31:52;;;;;;;25.25;22.05;;;;;;;7.87;65.54;100451.00;10627464;27;20047;-62
2021/03/26 00:36:55;;;;;;;27.58;22.35;;;;;;;7.59;66.19;100455.75;10610067;27;20453;-63
2021/03/26 00:41:56;;;;;;;25.33;22.70;;;;;;;7.45;66.56;100453.31;10629395;27;20043;-62
2021/03/26 00:46:57;;;;;;;31.33;22.75;;;;;;;7.45;67.04;100450.72;10628770;27;20119;-63
2021/03/26 00:51:59;;;;;;;27.00;21.63;;;;;;;7.22;67.31;100458.84;10626395;27;20046;-61
2021/03/26 00:57:01;;;;;;;37.13;22.80;;;;;;;7.60;67.08;100454.88;10627899;27;20044;-63
2021/03/26 01:02:14;;;;;;;31.52;21.70;;;;;;;7.34;67.19;100445.59;10626884;27;20054;-63
2021/03/26 01:07:17;;;;;;;26.95;20.85;;;;;;;7.05;67.28;100453.78;10627347;27;20030;-63
2021/03/26 01:12:18;;;;;;;27.63;21.77;;;;;;;6.98;67.34;100456.47;10626965;27;20393;-63
2021/03/26 01:17:20;;;;;;;29.17;22.85;;;;;;;7.07;67.93;100446.78;10626685;27;20055;-61
2021/03/26 01:22:22;;;;;;;29.90;22.25;;;;;;;6.74;68.16;100448.00;10628074;27;20146;-63
2021/03/26 01:27:27;;;;;;;24.65;22.23;;;;;;;6.48;68.05;100444.75;10625406;27;20046;-62
2021/03/26 01:32:42;;;;;;;32.22;22.13;;;;;;;6.41;68.01;100448.28;10624395;27;20039;-62
2021/03/26 01:37:46;;;;;;;33.47;23.27;;;;;;;6.25;68.93;100447.56;10626247;27;20495;-64
2021/03/26 01:42:48;;;;;;;29.45;23.85;;;;;;;6.32;70.27;100449.22;10606771;27;20494;-63
2021/03/26 01:47:53;;;;;;;27.13;20.60;;;;;;;6.13;70.21;100447.63;10625588;27;20531;-63
2021/03/26 01:52:57;;;;;;;35.47;23.73;;;;;;;6.54;68.91;100442.94;10623413;27;20035;-63
2021/03/26 01:57:59;;;;;;;23.15;20.75;;;;;;;6.04;68.99;100446.81;10626044;27;20288;-63
2021/03/26 02:03:32;;;;;;;25.73;22.23;;;;;;;5.96;69.15;100445.13;10623545;27;20043;-61
2021/03/26 02:08:38;;;;;;;36.90;23.92;;;;;;;5.91;69.54;100445.13;10624392;27;20583;-62
2021/03/26 02:13:48;;;;;;;30.92;22.98;;;;;;;6.03;69.55;100452.94;10625381;27;20449;-64
2021/03/26 02:18:55;;;;;;;30.65;21.10;;;;;;;5.84;69.43;100448.66;10623716;27;20446;-63
2021/03/26 02:24:03;;;;;;;29.08;21.17;;;;;;;5.47;69.50;100451.44;10623161;27;20496;-63
2021/03/26 02:29:22;;;;;;;34.17;20.40;;;;;;;5.55;69.61;100449.69;10607263;28;20047;-64
2021/03/26 02:35:06;;;;;;;34.13;22.52;;;;;;;5.51;70.65;100453.16;10622712;28;20096;-63
2021/03/26 02:40:15;;;;;;;26.50;20.52;;;;;;;5.62;70.81;100450.50;10624547;28;20073;-63
2021/03/26 02:45:26;;;;;;;28.67;20.58;;;;;;;5.47;69.43;100459.28;10624827;28;20107;-63
2021/03/26 02:51:08;;;;;;;27.83;23.10;;;;;;;5.46;69.86;100451.47;10622493;28;20050;-64
2021/03/26 02:56:30;;;;;;;27.17;20.20;;;;;;;5.02;70.48;100458.56;10626433;27;20381;-63
2021/03/26 03:01:39;;;;;;;26.45;20.23;;;;;;;5.06;70.53;100442.03;10632299;27;20162;-61
2021/03/26 03:06:52;;;;;;;23.15;20.80;;;;;;;5.34;70.09;100452.38;10632886;27;20108;-62
2021/03/26 03:12:28;;;;;;;26.98;19.63;;;;;;;5.04;70.23;100451.59;10633399;27;20418;-62
2021/03/26 03:17:43;;;;;;;20.70;18.52;;;;;;;4.61;70.72;100450.81;10628579;22;20047;-63
2021/03/26 03:23:07;;;;;;;29.00;20.90;;;;;;;4.68;71.20;100444.72;10588291;28;20085;-63
2021/03/26 03:28:44;;;;;;;22.33;18.85;;;;;;;4.69;70.34;100446.47;10587506;28;20043;-62
2021/03/26 03:34:38;;;;;;;20.52;18.50;;;;;;;4.90;69.94;100450.75;10569239;28;20501;-64
2021/03/26 03:40:11;;;;;;;24.55;19.77;;;;;;;4.75;70.37;100456.88;10587681;28;20040;-63
2021/03/26 03:45:36;;;;;;;28.30;20.55;;;;;;;4.69;70.96;100461.19;10587506;28;20032;-63
2021/03/26 03:51:15;;;;;;;25.25;19.83;;;;;;;4.50;70.77;100445.59;10585907;28;20061;-64
2021/03/26 03:56:30;;;;;;;30.75;18.33;;;;;;;4.51;70.37;100452.53;10586574;28;20515;-65
2021/03/26 04:01:47;;;;;;;22.45;18.77;;;;;;;4.42;71.11;100442.13;10584922;28;20045;-62
2021/03/26 04:07:00;;;;;;;29.10;19.00;;;;;;;4.63;70.25;100456.00;10585076;28;20036;-62
2021/03/26 04:12:12;;;;;;;22.27;18.45;;;;;;;4.43;70.58;100454.31;10586401;28;20047;-62
2021/03/26 04:17:25;;;;;;;;;;;;;;;4.20;70.61;100454.25;10587126;28;20055;-63
2021/03/26 04:22:39;;;;;;;19.02;17.08;;;;;;;4.34;70.68;100449.09;10584314;28;19920;-64
2021/03/26 04:27:49;;;;;;;18.33;16.40;;;;;;;4.22;70.25;100454.28;10584218;28;20138;-63
2021/03/26 04:33:03;;;;;;;19.85;16.20;;;;;;;4.09;70.33;100457.75;10583710;28;20489;-62
2021/03/26 04:38:23;;;;;;;19.48;16.50;;;;;;;3.87;70.82;100456.84;10585459;28;20036;-62
2021/03/26 04:43:41;;;;;;;24.38;17.65;;;;;;;4.12;70.55;100463.81;10585080;28;20504;-63
2021/03/26 04:48:49;;;;;;;19.85;17.58;;;;;;;4.01;71.24;100466.41;10584834;28;20044;-63
2021/03/26 04:54:48;;;;;;;21.23;17.00;;;;;;;3.98;70.89;100470.72;10569959;28;20477;-62
2021/03/26 05:00:14;;;;;;;20.85;16.20;;;;;;;3.84;70.50;100473.28;10585163;28;20439;-63
2021/03/26 05:05:33;;;;;;;19.27;16.92;;;;;;;4.07;70.84;100475.06;10583814;28;20071;-63
2021/03/26 05:10:53;;;;;;;23.48;18.35;;;;;;;4.03;70.99;100469.00;10583509;28;20074;-63
2021/03/26 05:16:03;;;;;;;20.63;18.40;;;;;;;4.07;70.63;100468.13;10583263;28;20084;-63
2021/03/26 05:21:32;;;;;;;;;;;;;;;4.15;70.76;100473.34;10582435;28;20047;-64
2021/03/26 05:27:01;;;;;;;26.93;18.33;;;;;;;4.33;70.54;100475.97;10583975;28;20384;-63
2021/03/26 05:32:25;;;;;;;30.13;18.05;;;;;;;4.26;70.30;100474.25;10581744;28;20047;-63
2021/03/26 05:38:20;;;;;;;18.83;16.85;;;;;;;4.35;70.20;100491.59;10565541;28;20044;-64
2021/03/26 05:44:04;;;;;;;19.83;16.73;;;;;;;4.23;70.13;100485.50;10583703;28;20416;-63
2021/03/26 05:49:26;;;;;;;17.45;15.70;;;;;;;4.44;70.24;100492.47;10582267;28;20063;-64
2021/03/26 05:54:51;;;;;;;17.92;15.30;;;;;;;4.70;69.72;100499.41;10564910;28;20516;-63
2021/03/26 06:00:09;;;;;;;16.67;15.18;;;;;;;5.07;68.79;100503.69;10565433;28;20051;-63
2021/03/26 06:06:22;;;;;;;15.18;13.55;;;;;;;5.59;66.99;100512.25;10581819;28;20476;-63
2021/03/26 06:12:34;;;;;;;14.05;12.80;;;;;;;8.69;60.29;100492.59;10536192;28;20518;-63
2021/03/26 06:18:10;;;;;;;13.68;12.40;;;;;;;10.23;54.89;100499.16;10566862;28;20055;-63
2021/03/26 06:23:56;;;;;;;13.18;11.98;;;;;;;11.33;51.62;100488.50;10582195;28;20122;-64
2021/03/26 06:29:16;;;;;;;14.52;13.13;;;;;;;11.90;50.60;100492.16;10565097;28;20055;-63
2021/03/26 06:34:38;;;;;;;12.75;11.35;;;;;;;12.05;49.17;100495.22;10590476;28;20044;-64
2021/03/26 06:39:55;;;;;;;12.48;11.38;;;;;;;11.46;51.26;100497.78;10591259;28;20096;-63
2021/03/26 06:45:04;;;;;;;;;;;;;;;11.66;49.62;100497.22;10590845;28;20050;-64
2021/03/26 06:50:36;;;;;;;12.02;10.85;;;;;;;11.25;50.98;100501.03;10589143;28;20388;-63
2021/03/26 06:56:04;;;;;;;15.95;12.35;;;;;;;10.61;52.21;100506.16;10589938;28;20043;-64
2021/03/26 07:01:08;;;;;;;13.30;10.98;;;;;;;10.51;52.19;100513.41;10589225;28;20044;-63
2021/03/26 07:06:13;;;;;;;12.70;11.52;;;;;;;10.97;51.38;100500.88;10589156;28;20044;-63
2021/03/26 07:11:20;;;;;;;14.85;11.65;;;;;;;10.89;51.22;100508.09;10589965;28;20408;-63
2021/03/26 07:16:27;;;;;;;22.45;11.13;;;;;;;11.20;50.47;100501.16;10587661;28;20043;-63
2021/03/26 07:21:58;;;;;;;14.10;11.73;;;;;;;11.33;51.06;100494.66;10586731;28;20562;-64
2021/03/26 07:27:12;;;;;;;14.15;12.73;;;;;;;11.66;49.31;100499.84;10588140;28;20386;-63
2021/03/26 07:32:22;;;;;;;15.10;13.60;;;;;;;12.14;49.31;100496.72;10587822;28;20039;-63
2021/03/26 07:37:46;;;;;;;16.40;14.48;;;;;;;11.90;49.83;100489.53;10588936;28;20051;-63
2021/03/26 07:42:55;;;;;;;18.30;15.18;;;;;;;11.94;49.38;100492.03;10587972;28;20036;-64
2021/03/26 07:48:02;;;;;;;21.45;17.65;;;;;;;12.14;48.47;100495.84;10588680;28;20040;-64
2021/03/26 07:53:23;;;;;;;17.83;16.13;;;;;;;12.37;48.58;100494.22;10588022;28;20036;-63
2021/03/26 07:58:33;;;;;;;19.98;18.08;;;;;;;12.40;48.87;100495.03;10587745;28;20097;-63
2021/03/26 08:04:06;;;;;;;23.40;20.33;;;;;;;12.56;48.48;100488.34;10586507;28;20044;-63
2021/03/26 08:09:10;;;;;;;25.08;21.05;;;;;;;13.11;48.47;100487.34;10587714;28;20374;-63
2021/03/26 08:14:28;;;;;;;26.65;20.75;;;;;;;13.58;46.94;100483.94;10586433;28;20040;-63
2021/03/26 08:19:36;;;;;;;23.75;20.10;;;;;;;14.44;46.38;100476.19;10585353;28;20496;-63
2021/03/26 08:25:05;;;;;;;27.88;22.80;;;;;;;15.21;44.88;100476.50;10586347;28;20435;-63
2021/03/26 08:30:27;;;;;;;33.50;22.33;;;;;;;15.36;43.36;100480.25;10585823;28;20054;-63
2021/03/26 08:35:38;;;;;;;28.70;21.42;;;;;;;15.39;43.68;100485.41;10585923;28;20093;-63
2021/03/26 08:40:47;;;;;;;24.92;21.33;;;;;;;15.29;43.74;100477.00;10585599;28;20070;-65
2021/03/26 08:46:09;;;;;;;28.70;21.60;;;;;;;15.64;43.03;100477.25;10585789;28;20417;-64
2021/03/26 08:51:33;;;;;;;24.23;21.60;;;;;;;15.02;44.48;100475.56;10585331;28;20047;-63
2021/03/26 08:56:50;;;;;;;22.10;17.98;;;;;;;15.71;44.23;100472.53;10585006;28;20054;-63
2021/03/26 09:01:58;;;;;;;;;;;;;;;15.82;45.38;100475.56;10583765;28;20101;-63
2021/03/26 09:07:21;;;;;;;20.98;18.48;;;;;;;15.95;43.21;100468.75;10584286;28;19928;-63
2021/03/26 09:12:33;;;;;;;22.27;18.10;;;;;;;16.64;42.52;100470.69;10583879;28;20048;-63
2021/03/26 09:17:41;;;;;;;16.73;15.32;;;;;;;16.60;41.50;100462.06;10583146;28;20480;-63
2021/03/26 09:23:08;;;;;;;16.55;15.18;;;;;;;16.33;42.01;100466.03;10583308;28;20066;-63
2021/03/26 09:28:09;;;;;;;12.60;10.93;;;;;;;16.51;40.91;100465.16;10581694;28;20063;-63
2021/03/26 09:33:15;;;;;;;11.70;8.85;;;;;;;16.34;40.47;100458.03;10583343;28;20039;-63
2021/03/26 09:38:22;;;;;;;;;;;;;;;16.85;39.82;100452.88;10583890;28;20043;-63
2021/03/26 09:43:40;;;;;;;8.75;7.97;;;;;;;16.83;40.69;100457.41;10583653;28;20347;-64
2021/03/26 09:49:03;;;;;;;9.23;8.38;;;;;;;17.27;39.76;100452.44;10583078;28;20043;-64
2021/03/26 09:54:25;;;;;;;8.73;7.30;;;;;;;17.61;38.88;100445.31;10582140;28;20139;-63
2021/03/26 10:00:19;;;;;;;6.82;6.18;;;;;;;17.76;38.45;100441.84;10581380;28;20044;-64
2021/03/26 10:05:35;;;;;;;9.45;8.55;;;;;;;17.67;38.98;100450.31;10556008;28;20059;-64
2021/03/26 10:15:42;;;;;;;7.70;6.90;;;;;;;18.50;37.97;100435.88;10582020;28;20046;-64
2021/03/26 10:21:06;;;;;;;9.07;7.60;;;;;;;18.42;38.92;100424.84;10581219;28;20051;-65
2021/03/26 10:26:18;;;;;;;8.45;7.72;;;;;;;18.10;37.77;100430.16;10582657;28;20040;-63
2021/03/26 10:31:29;;;;;;;9.40;7.25;;;;;;;18.25;37.51;100425.81;10582124;28;20426;-63
2021/03/26 10:36:41;;;;;;;6.82;6.25;;;;;;;17.77;37.75;100429.41;10581843;28;20035;-63
2021/03/26 10:41:49;;;;;;;7.28;6.57;;;;;;;17.80;37.71;100415.97;10582338;28;20039;-65
2021/03/26 10:47:16;;;;;;;7.50;6.80;;;;;;;16.71;39.87;100419.03;10582542;28;20040;-64
2021/03/26 10:52:36;;;;;;;7.28;6.57;;;;;;;16.52;39.18;100416.44;10581539;28;20407;-63
2021/03/26 10:58:02;;;;;;;8.25;7.45;;;;;;;16.31;40.29;100415.72;10581723;28;20390;-62
2021/03/26 11:03:09;;;;;;;8.48;7.68;;;;;;;15.91;41.35;100415.94;10582115;28;20062;-66
2021/03/26 11:08:17;;;;;;;7.85;7.15;;;;;;;15.86;40.93;100408.22;10582023;28;20051;-63
2021/03/26 11:13:37;;;;;;;8.70;6.88;;;;;;;15.80;40.87;100406.69;10580846;28;20044;-64
2021/03/26 11:18:50;;;;;;;7.65;6.15;;;;;;;15.72;41.62;100395.63;10586096;28;20492;-64
2021/03/26 11:23:56;;;;;;;7.53;6.82;;;;;;;15.98;40.91;100394.38;10588471;28;20047;-65
2021/03/26 11:29:12;;;;;;;7.33;6.33;;;;;;;16.54;40.06;100398.66;10588316;28;20040;-63
2021/03/26 11:34:38;;;;;;;6.63;6.03;;;;;;;16.96;40.33;100391.25;10588407;28;20048;-64
2021/03/26 11:40:06;;;;;;;7.33;5.80;;;;;;;16.95;38.45;100390.38;10587939;28;20100;-64
2021/03/26 11:45:31;;;;;;;5.75;5.22;;;;;;;16.48;38.90;100380.38;10588474;28;20036;-64
2021/03/26 11:50:43;;;;;;;4.90;3.13;;;;;;;16.23;37.37;100378.09;10587549;28;20089;-63
2021/03/26 11:56:04;;;;;;;4.88;2.97;;;;;;;16.85;36.78;100367.91;10588238;28;20059;-65
2021/03/26 12:01:09;;;;;;;4.55;2.88;;;;;;;17.61;36.81;100374.38;10587491;28;20044;-64
2021/03/26 12:06:24;;;;;;;5.87;4.60;;;;;;;17.68;36.06;100372.25;10587338;28;20032;-64
2021/03/26 12:11:45;;;;;;;6.80;5.93;;;;;;;17.26;36.44;100368.34;10585333;28;20054;-63
2021/03/26 12:16:59;;;;;;;5.88;5.18;;;;;;;17.34;36.47;100366.13;10586966;28;20397;-63
2021/03/26 12:22:06;;;;;;;6.68;6.07;;;;;;;16.74;36.81;100372.94;10586642;28;20048;-63
2021/03/26 12:27:34;;;;;;;12.00;11.00;;;;;;;16.36;37.67;100370.38;10585372;28;20048;-65
2021/03/26 12:32:38;;;;;;;11.07;10.18;;;;;;;16.22;38.39;100356.97;10586385;28;20394;-62
2021/03/26 12:37:58;;;;;;;10.55;9.63;;;;;;;16.68;38.30;100344.00;10588296;28;20043;-63
2021/03/26 12:43:23;;;;;;;13.10;11.07;;;;;;;16.41;39.00;100349.78;10586629;28;20197;-63
2021/03/26 12:48:47;;;;;;;14.13;13.00;;;;;;;16.71;40.06;100338.53;10585703;28;20073;-64
2021/03/26 12:53:55;;;;;;;14.95;13.75;;;;;;;16.18;39.48;100347.44;10585753;28;20046;-62
2021/03/26 12:59:16;;;;;;;20.25;15.20;;;;;;;15.99;40.93;100328.94;10585783;28;20408;-63
2021/03/26 13:04:36;;;;;;;15.70;14.40;;;;;;;16.08;40.54;100336.44;10584150;28;20051;-63
2021/03/26 13:10:05;;;;;;;15.90;14.40;;;;;;;16.25;41.17;100331.16;10584286;28;20047;-65
2021/03/26 13:15:13;;;;;;;18.35;16.48;;;;;;;16.23;41.28;100322.41;10584417;28;20050;-65
2021/03/26 13:20:18;;;;;;;17.13;15.70;;;;;;;16.21;41.37;100318.13;10582678;28;20043;-63
2021/03/26 13:25:45;;;;;;;19.77;17.92;;;;;;;16.42;40.33;100306.38;10584395;28;20075;-63
2021/03/26 13:31:01;;;;;;;21.42;19.05;;;;;;;16.85;40.02;100304.19;10586040;28;20043;-64
2021/03/26 13:36:06;;;;;;;;;;;;;;;16.73;40.76;100295.06;10585873;28;20073;-63
2021/03/26 13:41:22;;;;;;;21.58;19.75;;;;;;;16.52;39.99;100296.19;10586290;28;20368;-64
2021/03/26 13:46:27;;;;;;;21.00;19.23;;;;;;;16.21;41.05;100289.81;10585461;28;20134;-64
2021/03/26 13:51:35;;;;;;;20.55;18.98;;;;;;;16.29;41.13;100286.72;10585029;28;20316;-64
2021/03/26 13:56:41;;;;;;;20.55;18.75;;;;;;;16.48;41.36;100276.06;10584080;28;20036;-64
2021/03/26 14:01:51;;;;;;;25.57;20.03;;;;;;;16.01;41.38;100272.22;10584321;28;20046;-64
2021/03/26 14:07:04;;;;;;;21.67;19.50;;;;;;;16.44;40.72;100270.03;10582363;28;20373;-63
2021/03/26 14:12:28;;;;;;;21.48;19.45;;;;;;;16.48;39.56;100253.03;10564709;28;20086;-64
2021/03/26 14:17:39;;;;;;;23.33;21.13;;;;;;;16.20;41.65;100256.25;10582348;28;20073;-63
2021/03/26 14:22:53;;;;;;;27.92;21.65;;;;;;;16.30;41.31;100244.22;10582190;28;20138;-64
2021/03/26 14:28:18;;;;;;;22.70;20.60;;;;;;;16.39;40.53;100235.78;10581500;28;20051;-65
2021/03/26 14:33:49;;;;;;;23.02;20.58;;;;;;;16.34;41.19;100235.19;10582799;28;20089;-64
2021/03/26 14:38:50;;;;;;;24.52;22.40;;;;;;;16.23;41.53;100232.22;10579892;28;20059;-64
2021/03/26 14:44:02;;;;;;;21.92;19.73;;;;;;;16.04;41.35;100231.47;10582040;28;20032;-63
2021/03/26 14:49:08;;;;;;;21.30;19.58;;;;;;;16.19;41.04;100220.06;10580204;28;20442;-65
2021/03/26 14:54:18;;;;;;;21.85;19.92;;;;;;;16.36;40.86;100214.72;10584834;28;20254;-64
2021/03/26 14:59:29;;;;;;;21.10;19.05;;;;;;;16.47;42.14;100213.28;10586442;28;20039;-66
2021/03/26 15:04:38;;;;;;;26.33;19.77;;;;;;;16.53;40.31;100195.25;10587942;28;20044;-64
2021/03/26 15:09:45;;;;;;;20.23;18.48;;;;;;;16.47;40.66;100200.00;10590971;28;20052;-65
2021/03/26 15:14:50;;;;;;;20.70;18.52;;;;;;;16.31;40.94;100195.53;10590430;28;20067;-64
2021/03/26 15:19:54;;;;;;;20.80;18.98;;;;;;;16.48;39.70;100189.34;10603826;22;20058;-65
2021/03/26 15:25:08;;;;;;;19.67;17.85;;;;;;;16.09;40.58;100179.03;10593208;28;20054;-65
2021/03/26 15:30:41;;;;;;;21.42;19.45;;;;;;;16.45;39.86;100170.94;10595405;28;20043;-67
2021/03/26 15:36:02;;;;;;;20.50;18.73;;;;;;;16.09;41.30;100174.59;10595293;28;20075;-66
2021/03/26 15:41:27;;;;;;;19.20;17.80;;;;;;;16.02;41.55;100169.69;10593254;28;20113;-66
2021/03/26 15:46:42;;;;;;;19.25;17.65;;;;;;;15.94;40.72;100170.09;10593617;28;20459;-66
2021/03/26 15:52:21;;;;;;;18.27;16.65;;;;;;;15.53;41.97;100158.91;10593495;28;20046;-67
2021/03/26 15:57:37;;;;;;;19.13;17.40;;;;;;;15.79;41.61;100158.47;10593262;28;20093;-66
2021/03/26 16:03:12;;;;;;;28.17;18.65;;;;;;;15.74;41.74;100149.06;10591016;28;20047;-66
2021/03/26 16:08:40;;;;;;;22.83;20.60;;;;;;;15.42;43.26;100156.81;10590908;28;20048;-66
2021/03/26 16:14:15;;;;;;;27.08;24.38;;;;;;;15.45;43.85;100150.47;10592951;28;20050;-66
2021/03/26 16:20:01;;;;;;;30.35;24.30;;;;;;;15.22;44.41;100156.91;10591626;28;20039;-66
2021/03/26 16:25:22;;;;;;;25.92;23.17;;;;;;;15.10;44.97;100158.41;10593014;28;20035;-67
2021/03/26 16:30:48;;;;;;;25.38;23.08;;;;;;;14.87;45.05;100148.88;10599040;28;20043;-66
2021/03/26 16:36:04;;;;;;;25.48;23.02;;;;;;;14.66;45.30;100156.06;10589225;28;20629;-66
2021/03/26 16:41:31;;;;;;;27.30;23.80;;;;;;;14.52;46.23;100143.50;10590414;28;20062;-65
2021/03/26 16:46:48;;;;;;;28.02;24.35;;;;;;;14.35;46.30;100148.66;10591432;28;20500;-65
2021/03/26 16:52:19;;;;;;;34.55;29.70;;;;;;;14.27;46.15;100151.63;10589699;28;20047;-64
2021/03/26 16:57:54;;;;;;;33.92;28.50;;;;;;;14.19;46.41;100152.91;10590105;28;20438;-66
2021/03/26 17:02:59;;;;;;;31.45;28.20;;;;;;;14.07;46.50;100151.66;10591461;28;20043;-65
2021/03/26 17:08:48;;;;;;;31.35;28.00;;;;;;;13.90;47.24;100149.78;10591419;28;20035;-66
2021/03/26 17:14:27;;;;;;;30.83;26.27;;;;;;;13.81;47.89;100153.69;10420405;28;20518;-67
2021/03/26 17:19:50;;;;;;;30.20;24.95;;;;;;;13.67;49.01;100155.19;10417669;28;20083;-66
2021/03/26 17:25:34;;;;;;;30.20;27.08;;;;;;;13.60;49.46;100158.09;10417695;28;20065;-65
2021/03/26 17:31:10;;;;;;;28.88;25.80;;;;;;;13.30;50.01;100157.56;10415845;28;20057;-65
2021/03/26 17:36:17;;;;;;;30.73;26.67;;;;;;;13.07;50.63;100163.75;10415341;28;20049;-65
2021/03/26 17:41:31;;;;;;;31.25;25.55;;;;;;;12.84;52.36;100169.09;10413156;28;20200;-66
2021/03/26 17:47:03;;;;;;;60.15;36.75;;;;;;;12.65;51.83;100174.19;10586695;28;20408;-65
2021/03/26 17:52:23;;;;;;;51.35;32.75;;;;;;;12.31;53.06;100166.69;10537697;28;20050;-66
2021/03/26 17:58:13;;;;;;;55.05;34.67;;;;;;;12.11;52.64;100165.63;10586738;28;20040;-65
2021/03/26 18:04:04;;;;;;;49.47;33.08;;;;;;;12.02;54.44;100176.50;10556103;28;20412;-65
2021/03/26 18:09:33;;;;;;;50.90;34.55;;;;;;;11.89;54.32;100180.47;10416031;28;20511;-65
2021/03/26 18:14:54;;;;;;;52.08;33.78;;;;;;;11.80;54.77;100178.13;10374104;28;20101;-65
2021/03/26 18:20:26;;;;;;;46.88;33.88;;;;;;;11.51;55.55;100184.38;10374244;28;20141;-66
2021/03/26 18:26:11;;;;;;;39.35;32.22;;;;;;;11.26;55.93;100181.69;10373203;28;20061;-66
2021/03/26 18:31:39;;;;;;;45.05;31.67;;;;;;;11.15;56.55;100181.16;10415047;28;20582;-66
2021/03/26 18:36:48;;;;;;;56.55;34.20;;;;;;;11.00;56.77;100185.16;10404157;28;20511;-65
2021/03/26 18:42:29;;;;;;;53.58;33.58;;;;;;;10.86;57.13;100172.44;10432373;28;20509;-65
2021/03/26 18:47:59;;;;;;;49.20;35.35;;;;;;;10.64;57.88;100181.88;10628573;28;20442;-65
2021/03/26 18:53:38;;;;;;;57.33;37.65;;;;;;;10.54;57.97;100174.25;10627581;28;20122;-66
2021/03/26 18:59:15;;;;;;;59.20;37.80;;;;;;;10.54;58.12;100170.78;10629619;28;20078;-65
2021/03/26 19:04:32;;;;;;;66.97;40.20;;;;;;;10.38;58.45;100172.97;10630820;28;20077;-65
2021/03/26 19:09:40;;;;;;;60.83;40.08;;;;;;;10.09;58.74;100168.50;10630829;28;20043;-67
2021/03/26 19:15:09;;;;;;;;;;;;;;;9.99;59.32;100177.53;10614964;28;20134;-65
2021/03/26 19:20:49;;;;;;;70.68;40.97;;;;;;;9.92;59.25;100168.13;10612366;28;19923;-67
2021/03/26 19:26:02;;;;;;;60.03;39.50;;;;;;;9.75;60.03;100171.19;10631116;28;20039;-66
2021/03/26 19:31:13;;;;;;;71.38;42.78;;;;;;;9.68;59.95;100157.34;10629353;28;20050;-66
2021/03/26 19:36:47;;;;;;;60.65;39.75;;;;;;;9.55;60.27;100155.94;10613049;28;20052;-67
2021/03/26 19:42:11;;;;;;;60.47;39.10;;;;;;;9.47;60.78;100153.50;10602238;27;20078;-66
2021/03/26 19:47:42;;;;;;;59.00;37.70;;;;;;;9.17;60.99;100147.28;10618556;27;20035;-66
2021/03/26 19:53:11;;;;;;;55.45;38.17;;;;;;;9.24;61.48;100148.84;10638284;27;20039;-65
2021/03/26 19:58:26;;;;;;;56.72;35.83;;;;;;;9.04;60.91;100146.72;10617639;27;20043;-67
2021/03/26 20:03:57;;;;;;;54.30;36.15;;;;;;;8.87;61.71;100141.00;10618496;27;20039;-65
2021/03/26 20:09:11;;;;;;;52.53;35.83;;;;;;;8.87;61.89;100141.00;10637595;27;20057;-67
2021/03/26 20:14:41;;;;;;;55.92;34.30;;;;;;;8.71;62.34;100147.47;10638438;27;20039;-68
2021/03/26 20:20:18;;;;;;;58.17;35.63;;;;;;;8.59;62.25;100140.75;10644697;27;20047;-67
2021/03/26 20:25:59;;;;;;;55.83;35.47;;;;;;;8.39;62.44;100138.56;10643899;27;20051;-67
2021/03/26 20:31:32;;;;;;;43.47;29.83;;;;;;;8.35;61.66;100136.84;10650471;27;20118;-66
2021/03/26 20:36:51;;;;;;;56.65;32.83;;;;;;;8.50;62.10;100131.34;10590386;27;20133;-67
2021/03/26 20:42:01;;;;;;;70.43;36.35;;;;;;;8.45;62.13;100122.69;10627964;27;20520;-67
2021/03/26 20:47:41;;;;;;;60.45;34.13;;;;;;;8.11;62.71;100119.91;10644100;27;20071;-66
2021/03/26 20:52:48;;;;;;;53.38;32.78;;;;;;;8.00;63.02;100121.88;10632745;27;20047;-66
2021/03/26 20:58:07;;;;;;;60.28;33.38;;;;;;;8.12;63.28;100116.38;10645075;27;20050;-66
2021/03/26 21:03:22;;;;;;;53.10;30.45;;;;;;;8.26;62.38;100105.63;10636187;27;20047;-66
2021/03/26 21:08:34;;;;;;;46.47;28.30;;;;;;;7.99;62.47;100100.06;10619543;27;20142;-68
2021/03/26 21:13:51;;;;;;;42.10;27.60;;;;;;;7.73;63.38;100104.94;10637246;27;20038;-65
2021/03/26 21:19:06;;;;;;;43.03;25.95;;;;;;;7.92;63.21;100100.22;10638341;27;20043;-67
2021/03/26 21:24:41;;;;;;;27.88;23.45;;;;;;;7.78;62.83;100100.47;10623369;27;20039;-67
2021/03/26 21:29:51;;;;;;;29.95;23.20;;;;;;;7.48;62.99;100104.53;10427034;28;20049;-67
2021/03/26 21:34:58;;;;;;;27.77;20.92;;;;;;;7.50;63.15;100095.78;10432289;28;20057;-66
2021/03/26 21:40:05;;;;;;;;;;;;;;;7.34;62.39;100097.78;10427922;28;20084;-67
2021/03/26 21:45:31;;;;;;;20.33;17.67;;;;;;;7.47;62.35;100087.97;10426787;28;19932;-67
2021/03/26 21:50:41;;;;;;;21.92;18.70;;;;;;;7.65;62.34;100085.91;10427084;28;20063;-68
2021/03/26 21:56:20;;;;;;;26.67;19.00;;;;;;;7.64;61.83;100084.19;10426764;28;20052;-67
2021/03/26 22:02:09;;;;;;;17.02;15.20;;;;;;;7.48;61.81;100081.88;10410795;28;20073;-68
2021/03/26 22:07:29;;;;;;;18.17;16.38;;;;;;;7.48;61.82;100068.81;10564862;27;20469;-69
2021/03/26 22:12:40;;;;;;;18.10;16.25;;;;;;;7.64;61.95;100068.50;10640785;27;20043;-68
2021/03/26 22:17:50;;;;;;;17.08;15.45;;;;;;;7.38;62.10;100061.13;10640702;27;20066;-68
2021/03/26 22:22:52;;;;;;;16.70;15.25;;;;;;;7.35;62.68;100059.47;10638995;27;20404;-67
2021/03/26 22:28:19;;;;;;;15.88;14.20;;;;;;;7.26;62.18;100057.88;10637615;27;20039;-67
2021/03/26 22:33:24;;;;;;;14.73;13.45;;;;;;;7.36;61.49;100042.88;10636942;28;20050;-67
2021/03/26 22:38:44;;;;;;;12.95;11.85;;;;;;;7.12;61.68;100036.31;10637468;28;20047;-68
2021/03/26 22:43:49;;;;;;;12.55;11.32;;;;;;;6.91;61.89;100032.34;10620152;28;20088;-66
2021/03/26 22:49:21;;;;;;;12.85;11.57;;;;;;;7.03;61.75;100039.94;10643689;28;20103;-67
2021/03/26 22:54:29;;;;;;;13.30;11.68;;;;;;;7.23;61.16;100023.94;10639483;28;20043;-67
2021/03/26 22:59:42;;;;;;;14.43;13.02;;;;;;;7.24;61.03;100017.78;10637984;28;20063;-67
2021/03/26 23:04:48;;;;;;;13.18;11.82;;;;;;;7.29;60.39;100004.63;10636086;28;20075;-67
2021/03/26 23:09:55;;;;;;;14.90;13.35;;;;;;;7.06;61.50;100012.91;10636213;28;20043;-67
2021/03/26 23:15:00;;;;;;;13.40;12.18;;;;;;;6.70;62.17;99998.72;10641052;27;20046;-67
2021/03/26 23:20:09;;;;;;;13.38;11.85;;;;;;;6.72;62.61;99996.94;10642355;27;20488;-67
2021/03/26 23:25:26;;;;;;;12.40;11.35;;;;;;;6.74;62.16;99992.56;10643260;27;20092;-68
2021/03/26 23:30:36;;;;;;;;;;;;;;;6.62;63.31;99984.94;10643148;27;20065;-66
2021/03/26 23:35:41;;;;;;;14.82;12.57;;;;;;;6.49;63.32;99977.28;10624225;27;19923;-67
2021/03/26 23:40:47;;;;;;;14.25;12.70;;;;;;;6.43;63.28;99969.56;10643062;27;20058;-67
2021/03/26 23:46:05;;;;;;;13.35;11.98;;;;;;;6.33;63.63;99970.59;10624281;27;20057;-67
2021/03/26 23:51:23;;;;;;;12.70;11.60;;;;;;;6.09;63.88;99963.13;10641859;27;20039;-67
2021/03/26 23:56:28;;;;;;;12.75;11.57;;;;;;;6.15;64.13;99949.97;10642710;27;20042;-67
